createdAt,value
2018-08-20T00:01:54.040Z,4.50
2018-08-20T00:04:21.668Z,4.17
2018-08-20T00:06:56.371Z,4.03
2018-08-20T00:09:35.997Z,4.03
2018-08-20T00:12:09.227Z,8.87
2018-08-20T00:14:37.068Z,4.43
2018-08-20T00:17:04.715Z,4.17
2018-08-20T00:19:32.776Z,3.90
2018-08-20T00:22:00.343Z,4.03
2018-08-20T00:24:28.052Z,3.70
2018-08-20T00:26:59.032Z,3.80
2018-08-20T00:29:26.639Z,3.73
2018-08-20T00:31:54.675Z,3.87
2018-08-20T00:34:22.299Z,3.80
2018-08-20T00:36:49.917Z,3.70
2018-08-20T00:39:18.059Z,3.60
2018-08-20T00:41:46.149Z,3.87
2018-08-20T00:44:15.019Z,3.93
2018-08-20T00:46:43.973Z,3.80
2018-08-20T00:49:12.311Z,3.60
2018-08-20T00:51:39.888Z,3.37
2018-08-20T00:54:07.891Z,3.80
2018-08-20T00:56:35.430Z,3.67
2018-08-20T00:59:03.171Z,3.87
2018-08-20T01:01:31.250Z,3.63
2018-08-20T01:04:00.058Z,3.43
2018-08-20T01:06:27.700Z,3.33
2018-08-20T01:08:55.423Z,3.80
2018-08-20T01:11:23.247Z,3.83
2018-08-20T01:13:51.633Z,3.73
2018-08-20T01:16:19.213Z,3.67
2018-08-20T01:18:47.081Z,3.87
2018-08-20T01:21:14.643Z,3.73
2018-08-20T01:23:42.628Z,3.13
2018-08-20T01:26:10.230Z,3.63
2018-08-20T01:28:37.936Z,4.07
2018-08-20T01:31:05.877Z,3.67
2018-08-20T01:33:33.947Z,3.90
2018-08-20T01:36:02.102Z,3.80
2018-08-20T01:38:29.939Z,3.97
2018-08-20T01:40:57.539Z,4.03
2018-08-20T01:43:25.148Z,3.47
2018-08-20T01:45:52.727Z,3.90
2018-08-20T01:48:21.147Z,4.03
2018-08-20T01:50:49.072Z,3.97
2018-08-20T01:53:16.792Z,4.10
2018-08-20T01:55:44.360Z,3.73
2018-08-20T01:58:11.979Z,3.83
2018-08-20T02:00:39.607Z,3.77
2018-08-20T02:03:07.248Z,3.87
2018-08-20T02:05:35.175Z,4.47
2018-08-20T02:08:02.843Z,3.80
2018-08-20T02:10:30.495Z,4.03
2018-08-20T02:12:58.679Z,3.37
2018-08-20T02:15:26.267Z,3.77
2018-08-20T02:17:54.191Z,4.00
2018-08-20T02:20:22.160Z,3.80
2018-08-20T02:22:49.780Z,4.33
2018-08-20T02:25:17.397Z,4.00
2018-08-20T02:27:45.084Z,4.10
2018-08-20T02:30:12.747Z,3.77
2018-08-20T02:32:40.390Z,3.67
2018-08-20T02:35:09.014Z,4.00
2018-08-20T02:37:44.060Z,3.43
2018-08-20T02:40:11.757Z,4.00
2018-08-20T02:42:43.518Z,3.67
2018-08-20T02:45:15.385Z,4.50
2018-08-20T02:47:43.380Z,3.57
2018-08-20T02:50:11.692Z,3.60
2018-08-20T02:52:39.954Z,4.10
2018-08-20T02:55:46.312Z,3.70
2018-08-20T02:58:14.676Z,3.43
2018-08-20T03:00:46.506Z,4.60
2018-08-20T03:03:14.116Z,3.93
2018-08-20T03:05:43.325Z,3.67
2018-08-20T03:08:10.877Z,3.90
2018-08-20T03:10:38.685Z,3.70
2018-08-20T03:13:06.413Z,3.77
2018-08-20T03:15:33.991Z,3.30
2018-08-20T03:18:02.242Z,4.17
2018-08-20T03:20:29.792Z,4.20
2018-08-20T03:22:57.367Z,3.83
2018-08-20T03:25:25.290Z,5.27
2018-08-20T03:27:52.876Z,3.90
2018-08-20T03:30:20.527Z,4.53
2018-08-20T03:32:48.681Z,4.33
2018-08-20T03:35:16.229Z,4.03
2018-08-20T03:37:43.806Z,4.90
2018-08-20T03:40:12.422Z,3.57
2018-08-20T03:42:40.048Z,3.83
2018-08-20T03:45:08.441Z,3.70
2018-08-20T03:47:36.381Z,4.80
2018-08-20T03:50:06.851Z,3.97
2018-08-20T03:52:34.404Z,4.50
2018-08-20T03:55:02.120Z,3.60
2018-08-20T03:57:29.666Z,4.17
2018-08-20T03:59:57.765Z,3.73
2018-08-20T04:02:25.379Z,4.43
2018-08-20T04:04:53.001Z,3.50
2018-08-20T04:07:20.600Z,3.67
2018-08-20T04:09:48.128Z,3.73
2018-08-20T04:12:16.397Z,3.73
2018-08-20T04:14:44.268Z,3.80
2018-08-20T04:17:11.851Z,3.53
2018-08-20T04:19:39.496Z,3.53
2018-08-20T04:22:07.324Z,3.70
2018-08-20T04:24:35.028Z,3.80
2018-08-20T04:27:02.684Z,4.00
2018-08-20T04:29:30.504Z,4.07
2018-08-20T04:31:58.374Z,3.77
2018-08-20T04:34:26.602Z,3.97
2018-08-20T04:36:54.326Z,4.87
2018-08-20T04:39:22.030Z,4.23
2018-08-20T04:41:49.551Z,3.70
2018-08-20T04:44:17.511Z,4.47
2018-08-20T04:46:45.491Z,3.47
2018-08-20T04:49:13.064Z,4.03
2018-08-20T04:51:40.628Z,4.07
2018-08-20T04:54:08.477Z,4.50
2018-08-20T04:56:36.070Z,3.80
2018-08-20T04:59:03.772Z,4.67
2018-08-20T05:01:40.435Z,4.17
2018-08-20T05:04:08.057Z,4.43
2018-08-20T05:06:35.621Z,4.63
2018-08-20T05:09:05.031Z,4.77
2018-08-20T05:11:32.537Z,4.27
2018-08-20T05:14:00.166Z,3.70
2018-08-20T05:16:28.056Z,3.87
2018-08-20T05:18:55.685Z,3.50
2018-08-20T05:21:23.136Z,4.27
2018-08-20T05:23:50.923Z,3.53
2018-08-20T05:26:19.620Z,3.47
2018-08-20T05:28:47.702Z,3.43
2018-08-20T05:31:15.256Z,3.00
2018-08-20T05:33:42.799Z,3.83
2018-08-20T05:36:10.351Z,3.43
2018-08-20T05:38:38.252Z,4.03
2018-08-20T05:41:05.800Z,3.40
2018-08-20T05:43:33.683Z,4.00
2018-08-20T05:46:01.258Z,4.90
2018-08-20T05:48:28.855Z,4.30
2018-08-20T05:50:56.698Z,3.63
2018-08-20T05:53:24.292Z,4.03
2018-08-20T05:55:52.224Z,3.33
2018-08-20T05:58:19.801Z,4.50
2018-08-20T06:00:47.407Z,3.10
2018-08-20T06:03:15.454Z,3.30
2018-08-20T06:05:43.032Z,3.23
2018-08-20T06:08:10.605Z,4.03
2018-08-20T06:10:38.053Z,3.20
2018-08-20T06:13:05.872Z,4.63
2018-08-20T06:15:33.499Z,3.53
2018-08-20T06:18:01.404Z,3.10
2018-08-20T06:20:28.976Z,3.30
2018-08-20T06:22:56.597Z,3.63
2018-08-20T06:25:24.181Z,3.50
2018-08-20T06:27:51.739Z,3.50
2018-08-20T06:30:19.707Z,3.33
2018-08-20T06:32:47.311Z,2.90
2018-08-20T06:35:14.860Z,3.00
2018-08-20T06:37:42.274Z,3.17
2018-08-20T06:40:12.195Z,5.30
2018-08-20T06:42:39.810Z,3.70
2018-08-20T06:45:12.338Z,3.93
2018-08-20T06:47:40.498Z,3.50
2018-08-20T06:50:08.113Z,3.13
2018-08-20T06:52:36.174Z,4.20
2018-08-20T06:55:03.961Z,3.23
2018-08-20T06:57:31.525Z,3.50
2018-08-20T06:59:59.239Z,3.67
2018-08-20T07:02:26.835Z,4.23
2018-08-20T07:04:54.416Z,3.33
2018-08-20T07:07:22.827Z,3.40
2018-08-20T07:09:50.756Z,3.37
2018-08-20T07:12:26.602Z,3.90
2018-08-20T07:14:54.170Z,5.77
2018-08-20T07:17:21.873Z,4.27
2018-08-20T07:19:49.803Z,3.43
2018-08-20T07:22:17.700Z,3.83
2018-08-20T07:24:45.260Z,3.53
2018-08-20T07:27:12.817Z,3.50
2018-08-20T07:29:42.380Z,3.40
2018-08-20T07:32:11.279Z,4.37
2018-08-20T07:34:40.096Z,3.53
2018-08-20T07:37:08.505Z,3.60
2018-08-20T07:39:36.051Z,3.63
2018-08-20T07:42:03.689Z,3.73
2018-08-20T07:44:31.387Z,3.73
2018-08-20T07:47:01.672Z,3.57
2018-08-20T07:49:29.249Z,4.10
2018-08-20T07:51:57.259Z,3.47
2018-08-20T07:54:24.819Z,3.80
2018-08-20T07:56:52.357Z,3.87
2018-08-20T07:59:20.200Z,3.87
2018-08-20T08:01:47.750Z,3.27
2018-08-20T08:04:15.294Z,3.33
2018-08-20T08:06:43.089Z,3.67
2018-08-20T08:09:11.016Z,3.30
2018-08-20T08:11:38.579Z,3.80
2018-08-20T08:14:06.517Z,3.57
2018-08-20T08:16:35.412Z,3.50
2018-08-20T08:19:03.040Z,3.23
2018-08-20T08:21:30.895Z,5.43
2018-08-20T08:23:58.511Z,6.53
2018-08-20T08:26:26.165Z,3.70
2018-08-20T08:28:59.360Z,3.87
2018-08-20T08:31:27.364Z,3.87
2018-08-20T08:33:54.971Z,3.60
2018-08-20T08:36:23.034Z,3.37
2018-08-20T08:38:50.731Z,3.27
2018-08-20T08:41:18.377Z,4.30
2018-08-20T08:43:45.964Z,3.47
2018-08-20T08:46:13.555Z,3.70
2018-08-20T08:48:42.205Z,4.20
2018-08-20T08:51:10.069Z,3.70
2018-08-20T08:53:37.645Z,3.77
2018-08-20T08:56:05.254Z,4.07
2018-08-20T08:58:33.204Z,3.67
2018-08-20T09:01:00.806Z,3.70
2018-08-20T09:03:31.171Z,4.00
2018-08-20T09:06:00.265Z,3.70
2018-08-20T09:08:27.820Z,3.50
2018-08-20T09:10:55.618Z,3.33
2018-08-20T09:13:23.233Z,3.03
2018-08-20T09:15:50.776Z,3.70
2018-08-20T09:18:18.720Z,3.23
2018-08-20T09:20:46.297Z,3.73
2018-08-20T09:23:13.879Z,3.37
2018-08-20T09:25:41.559Z,6.10
2018-08-20T09:28:09.148Z,2.83
2018-08-20T09:30:36.705Z,3.23
2018-08-20T09:33:04.387Z,3.57
2018-08-20T09:35:31.951Z,3.20
2018-08-20T09:37:59.527Z,3.27
2018-08-20T09:40:27.424Z,3.67
2018-08-20T09:42:54.987Z,3.47
2018-08-20T09:45:22.533Z,3.93
2018-08-20T09:47:50.237Z,4.10
2018-08-20T09:50:17.811Z,3.50
2018-08-20T09:52:45.509Z,3.33
2018-08-20T09:55:13.100Z,3.23
2018-08-20T09:57:40.742Z,4.23
2018-08-20T10:00:17.886Z,3.27
2018-08-20T10:02:45.436Z,2.80
2018-08-20T10:05:12.987Z,3.60
2018-08-20T10:07:41.166Z,3.60
2018-08-20T10:10:08.785Z,3.33
2018-08-20T10:12:36.269Z,3.17
2018-08-20T10:15:04.217Z,4.33
2018-08-20T10:17:31.800Z,3.67
2018-08-20T10:19:59.331Z,3.83
2018-08-20T10:22:27.475Z,3.67
2018-08-20T10:24:55.029Z,3.73
2018-08-20T10:27:22.592Z,3.83
2018-08-20T10:29:50.441Z,3.90
2018-08-20T10:32:21.683Z,4.10
2018-08-20T10:34:49.232Z,4.27
2018-08-20T10:37:17.264Z,3.67
2018-08-20T10:39:44.869Z,3.67
2018-08-20T10:42:12.485Z,3.80
2018-08-20T10:44:46.172Z,5.57
2018-08-20T10:47:13.757Z,4.07
2018-08-20T10:49:41.320Z,4.67
2018-08-20T10:52:09.421Z,4.13
2018-08-20T10:54:37.040Z,4.57
2018-08-20T10:57:05.208Z,4.60
2018-08-20T10:59:32.928Z,3.87
2018-08-20T11:02:00.478Z,5.10
2018-08-20T11:04:28.023Z,4.70
2018-08-20T11:06:55.844Z,4.80
2018-08-20T11:09:23.411Z,4.63
2018-08-20T11:11:51.016Z,4.03
2018-08-20T11:14:18.617Z,5.27
2018-08-20T11:16:46.128Z,5.70
2018-08-20T11:19:13.739Z,4.07
2018-08-20T11:21:41.417Z,4.23
2018-08-20T11:24:09.302Z,3.80
2018-08-20T11:26:36.840Z,4.70
2018-08-20T11:29:04.603Z,3.70
2018-08-20T11:31:32.186Z,3.93
2018-08-20T11:33:59.776Z,6.30
2018-08-20T11:36:30.830Z,4.10
2018-08-20T11:38:58.409Z,3.60
2018-08-20T11:44:05.692Z,3.53
2018-08-20T11:46:34.338Z,3.37
2018-08-20T11:49:07.196Z,6.03
2018-08-20T11:51:34.801Z,3.77
2018-08-20T11:54:26.021Z,5.53
2018-08-20T11:56:53.554Z,7.13
2018-08-20T11:59:21.114Z,4.30
2018-08-20T12:01:48.695Z,5.00
2018-08-20T12:04:16.244Z,3.23
2018-08-20T12:06:43.812Z,3.10
2018-08-20T12:09:11.726Z,3.70
2018-08-20T12:11:39.307Z,3.00
2018-08-20T12:14:06.959Z,3.30
2018-08-20T12:16:34.693Z,3.13
2018-08-20T12:19:04.216Z,3.57
2018-08-20T12:21:31.770Z,4.00
2018-08-20T12:23:59.306Z,4.00
2018-08-20T12:26:27.761Z,3.60
2018-08-20T12:28:55.290Z,3.50
2018-08-20T12:31:22.857Z,3.57
2018-08-20T12:33:50.420Z,3.60
2018-08-20T12:36:17.967Z,3.57
2018-08-20T12:38:45.501Z,3.97
2018-08-20T12:41:13.660Z,4.60
2018-08-20T12:43:41.205Z,3.60
2018-08-20T12:46:08.792Z,3.90
2018-08-20T12:48:36.729Z,3.67
2018-08-20T12:51:08.815Z,3.67
2018-08-20T12:53:36.798Z,3.63
2018-08-20T12:56:08.824Z,3.90
2018-08-20T12:58:36.355Z,3.43
2018-08-20T13:01:26.033Z,3.70
2018-08-20T13:03:53.694Z,3.27
2018-08-20T13:06:21.207Z,3.17
2018-08-20T13:08:48.921Z,3.80
2018-08-20T13:11:16.478Z,4.03
2018-08-20T13:13:44.400Z,3.47
2018-08-20T13:16:12.232Z,3.00
2018-08-20T13:18:39.765Z,2.97
2018-08-20T13:21:07.337Z,3.43
2018-08-20T13:23:35.218Z,3.33
2018-08-20T13:26:03.002Z,3.10
2018-08-20T13:28:30.593Z,3.00
2018-08-20T13:30:58.264Z,3.30
2018-08-20T13:33:25.860Z,3.17
2018-08-20T13:35:53.850Z,3.17
2018-08-20T13:38:21.467Z,3.17
2018-08-20T13:40:49.004Z,2.93
2018-08-20T13:43:16.866Z,4.33
2018-08-20T13:45:44.372Z,3.03
2018-08-20T13:48:11.944Z,3.07
2018-08-20T13:50:39.854Z,2.90
2018-08-20T13:53:07.436Z,3.27
2018-08-20T13:55:35.040Z,2.70
2018-08-20T13:58:03.052Z,3.80
2018-08-20T14:00:30.637Z,2.80
2018-08-20T14:02:58.211Z,3.47
2018-08-20T14:05:25.821Z,4.00
2018-08-20T14:07:57.635Z,3.20
2018-08-20T14:10:25.185Z,2.77
2018-08-20T14:12:56.636Z,2.53
2018-08-20T14:15:36.527Z,4.30
2018-08-20T14:18:21.666Z,3.10
2018-08-20T14:21:10.713Z,2.50
2018-08-20T14:23:40.528Z,2.57
2018-08-20T14:26:08.111Z,2.23
2018-08-20T14:28:35.697Z,2.10
2018-08-20T14:31:03.518Z,2.03
2018-08-20T14:33:31.499Z,2.23
2018-08-20T14:35:59.676Z,2.37
2018-08-20T14:38:27.308Z,2.43
2018-08-20T14:40:54.908Z,2.40
2018-08-20T14:43:22.557Z,4.10
2018-08-20T14:45:56.104Z,2.93
2018-08-20T14:48:23.699Z,2.07
2018-08-20T14:50:51.264Z,1.97
2018-08-20T14:53:19.344Z,2.10
2018-08-20T14:55:46.865Z,2.30
2018-08-20T14:58:14.843Z,2.00
2018-08-20T15:00:42.456Z,2.00
2018-08-20T15:03:10.065Z,2.20
2018-08-20T15:05:37.684Z,1.90
2018-08-20T15:08:05.592Z,1.70
2018-08-20T15:10:33.150Z,2.20
2018-08-20T15:13:00.721Z,2.83
2018-08-20T15:15:28.727Z,1.70
2018-08-20T15:17:56.208Z,1.90
2018-08-20T15:20:24.098Z,2.73
2018-08-20T15:22:51.896Z,5.20
2018-08-20T15:25:19.428Z,2.00
2018-08-20T15:27:46.955Z,1.97
2018-08-20T15:30:14.957Z,2.83
2018-08-20T15:32:42.566Z,2.10
2018-08-20T15:35:10.112Z,2.27
2018-08-20T15:37:38.272Z,2.50
2018-08-20T15:40:05.839Z,2.47
2018-08-20T15:42:33.361Z,2.20
2018-08-20T15:45:01.735Z,2.40
2018-08-20T15:47:29.368Z,2.10
2018-08-20T15:49:56.911Z,1.87
2018-08-20T15:52:24.732Z,2.60
2018-08-20T15:54:52.561Z,2.50
2018-08-20T15:57:20.088Z,2.10
2018-08-20T15:59:48.245Z,1.90
2018-08-20T16:02:15.855Z,1.97
2018-08-20T16:04:43.399Z,4.03
2018-08-20T16:07:11.257Z,2.00
2018-08-20T16:09:38.841Z,2.67
2018-08-20T16:12:06.579Z,3.07
2018-08-20T16:14:34.350Z,3.20
2018-08-20T16:17:01.958Z,2.60
2018-08-20T16:19:29.378Z,2.40
2018-08-20T16:21:57.048Z,1.67
2018-08-20T16:24:24.651Z,2.00
2018-08-20T16:26:52.232Z,1.87
2018-08-20T16:29:19.850Z,2.27
2018-08-20T16:31:47.587Z,3.17
2018-08-20T16:34:15.249Z,2.10
2018-08-20T16:36:42.803Z,3.60
2018-08-20T16:39:11.796Z,1.83
2018-08-20T16:41:39.565Z,2.20
2018-08-20T16:44:08.048Z,2.43
2018-08-20T16:46:35.981Z,3.17
2018-08-20T16:49:03.625Z,2.97
2018-08-20T16:51:31.282Z,3.33
2018-08-20T16:53:59.190Z,3.43
2018-08-20T16:56:26.756Z,2.63
2018-08-20T16:58:54.488Z,2.27
2018-08-20T17:01:22.277Z,2.10
2018-08-20T17:03:50.373Z,4.37
2018-08-20T17:06:18.670Z,3.17
2018-08-20T17:08:46.237Z,2.23
2018-08-20T17:11:14.132Z,1.73
2018-08-20T17:13:42.264Z,2.20
2018-08-20T17:16:12.563Z,2.20
2018-08-20T17:18:40.256Z,1.93
2018-08-20T17:21:08.424Z,2.23
2018-08-20T17:23:36.521Z,2.20
2018-08-20T17:26:04.627Z,1.83
2018-08-20T17:28:32.446Z,1.77
2018-08-20T17:31:02.586Z,1.40
2018-08-20T17:33:34.017Z,1.93
2018-08-20T17:36:01.900Z,1.40
2018-08-20T17:38:29.598Z,3.57
2018-08-20T17:40:57.268Z,2.63
2018-08-20T17:43:25.201Z,1.50
2018-08-20T17:45:55.239Z,1.47
2018-08-20T17:48:28.260Z,1.43
2018-08-20T17:50:56.425Z,1.40
2018-08-20T17:53:25.091Z,1.30
2018-08-20T17:55:52.847Z,1.60
2018-08-20T17:58:20.734Z,2.77
2018-08-20T18:00:52.551Z,1.50
2018-08-20T18:03:26.511Z,1.20
2018-08-20T18:05:58.959Z,3.20
2018-08-20T18:08:28.105Z,1.20
2018-08-20T18:10:56.430Z,2.93
2018-08-20T18:13:48.665Z,1.20
2018-08-20T18:16:23.812Z,1.37
2018-08-20T18:18:52.460Z,1.43
2018-08-20T18:21:21.541Z,1.67
2018-08-20T18:23:49.287Z,1.10
2018-08-20T18:26:16.860Z,1.77
2018-08-20T18:28:50.748Z,1.07
2018-08-20T18:31:22.487Z,1.47
2018-08-20T18:33:50.183Z,1.50
2018-08-20T18:36:23.099Z,0.97
2018-08-20T18:38:52.679Z,1.20
2018-08-20T18:41:40.179Z,2.20
2018-08-20T18:44:08.953Z,1.03
2018-08-20T18:46:37.865Z,1.60
2018-08-20T18:49:05.695Z,1.30
2018-08-20T18:51:34.027Z,2.53
2018-08-20T18:54:01.951Z,1.27
2018-08-20T18:56:29.787Z,1.20
2018-08-20T18:58:57.323Z,1.50
2018-08-20T19:01:24.945Z,1.40
2018-08-20T19:03:52.905Z,1.10
2018-08-20T19:06:20.919Z,3.10
2018-08-20T19:08:48.536Z,2.90
2018-08-20T19:11:16.110Z,2.03
2018-08-20T19:13:43.858Z,1.50
2018-08-20T19:16:43.860Z,2.63
2018-08-20T19:19:16.966Z,1.40
2018-08-20T19:21:44.551Z,1.33
2018-08-20T19:24:11.997Z,1.20
2018-08-20T19:26:39.637Z,1.27
2018-08-20T19:29:27.098Z,1.37
2018-08-20T19:31:54.755Z,1.30
2018-08-20T19:34:22.391Z,1.37
2018-08-20T19:36:50.604Z,1.10
2018-08-20T19:39:18.210Z,1.57
2018-08-20T19:41:45.821Z,1.30
2018-08-20T19:44:13.991Z,1.27
2018-08-20T19:46:41.548Z,1.13
2018-08-20T19:49:14.521Z,1.20
2018-08-20T19:51:43.399Z,1.20
2018-08-20T19:54:13.538Z,1.33
2018-08-20T19:56:41.479Z,1.47
2018-08-20T19:59:09.591Z,1.50
2018-08-20T20:01:37.319Z,1.13
2018-08-20T20:04:05.008Z,1.63
2018-08-20T20:06:32.624Z,1.00
2018-08-20T20:09:08.494Z,1.47
2018-08-20T20:11:43.401Z,1.30
2018-08-20T20:14:11.332Z,2.03
2018-08-20T20:16:44.866Z,1.13
2018-08-20T20:19:12.801Z,1.20
2018-08-20T20:21:40.436Z,1.50
2018-08-20T20:24:08.696Z,1.03
2018-08-20T20:26:37.316Z,1.37
2018-08-20T20:29:06.913Z,1.07
2018-08-20T20:31:34.944Z,1.20
2018-08-20T20:34:03.080Z,0.80
2018-08-20T20:36:32.017Z,1.00
2018-08-20T20:39:00.249Z,1.23
2018-08-20T20:41:28.322Z,1.43
2018-08-20T20:43:55.875Z,1.10
2018-08-20T20:46:23.480Z,2.00
2018-08-20T20:48:51.427Z,1.23
2018-08-20T20:51:20.092Z,1.03
2018-08-20T20:53:47.951Z,1.70
2018-08-20T20:56:15.700Z,1.50
2018-08-20T20:58:43.284Z,0.70
2018-08-20T21:01:12.085Z,1.20
2018-08-20T21:03:40.003Z,1.87
2018-08-20T21:06:07.951Z,2.07
2018-08-20T21:08:41.352Z,1.40
2018-08-20T21:11:11.161Z,1.77
2018-08-20T21:13:39.100Z,1.10
2018-08-20T21:16:12.045Z,0.80
2018-08-20T21:18:42.952Z,1.03
2018-08-20T21:21:10.556Z,1.23
2018-08-20T21:23:39.717Z,0.90
2018-08-20T21:26:08.010Z,1.90
2018-08-20T21:28:41.939Z,2.47
2018-08-20T21:31:10.116Z,1.27
2018-08-20T21:33:38.057Z,1.57
2018-08-20T21:36:05.985Z,1.10
2018-08-20T21:38:33.724Z,1.30
2018-08-20T21:41:01.335Z,1.10
2018-08-20T21:43:35.064Z,1.90
2018-08-20T21:46:02.661Z,1.10
2018-08-20T21:48:30.385Z,0.90
2018-08-20T21:51:01.280Z,1.07
2018-08-20T21:53:36.400Z,0.90
2018-08-20T21:56:05.918Z,0.87
2018-08-20T21:58:35.609Z,1.43
2018-08-20T22:01:03.560Z,1.10
2018-08-20T22:03:31.882Z,1.20
2018-08-20T22:05:59.458Z,1.10
2018-08-20T22:08:27.053Z,2.00
2018-08-20T22:10:54.803Z,0.77
2018-08-20T22:13:22.375Z,1.50
2018-08-20T22:16:09.895Z,1.03
2018-08-20T22:18:38.128Z,1.23
2018-08-20T22:21:10.219Z,1.80
2018-08-20T22:23:39.286Z,1.20
2018-08-20T22:26:10.222Z,0.80
2018-08-20T22:28:38.561Z,1.10
2018-08-20T22:31:06.136Z,1.77
2018-08-20T22:33:34.389Z,1.00
2018-08-20T22:36:02.027Z,1.40
2018-08-20T22:38:34.024Z,1.83
2018-08-20T22:41:01.598Z,1.30
2018-08-20T22:43:29.844Z,1.83
2018-08-20T22:45:57.865Z,1.00
2018-08-20T22:48:25.456Z,1.20
2018-08-20T22:51:08.856Z,0.93
2018-08-20T22:53:36.780Z,1.27
2018-08-20T22:56:12.915Z,3.60
2018-08-20T22:58:42.146Z,1.03
2018-08-20T23:01:09.760Z,2.90
2018-08-20T23:03:37.595Z,1.30
2018-08-20T23:06:05.216Z,1.20
2018-08-20T23:08:32.893Z,2.23
2018-08-20T23:11:00.860Z,1.50
2018-08-20T23:13:28.729Z,1.30
2018-08-20T23:15:56.377Z,1.47
2018-08-20T23:18:25.129Z,1.30
2018-08-20T23:20:53.554Z,1.47
2018-08-20T23:23:31.776Z,1.43
2018-08-20T23:26:06.064Z,1.20
2018-08-20T23:28:36.199Z,1.17
2018-08-20T23:31:03.853Z,1.93
2018-08-20T23:33:32.955Z,1.73
2018-08-20T23:36:00.677Z,1.40
2018-08-20T23:38:28.689Z,1.47
2018-08-20T23:40:56.738Z,1.33
2018-08-20T23:43:24.771Z,1.40
2018-08-20T23:45:52.333Z,1.23
2018-08-20T23:48:19.990Z,2.53
2018-08-20T23:51:04.164Z,1.20
2018-08-20T23:53:32.128Z,1.73
2018-08-20T23:55:59.705Z,2.10
2018-08-20T23:58:27.742Z,1.40
